sensor_id;sensor_type;location;lat;lon;timestamp;P1;durP1;ratioP1;P2;durP2;ratioP2
54947;SDS011;41113;41.882;12.530;2023-04-03T00:00:58;14.35;;;4.20;;
54947;SDS011;41113;41.882;12.530;2023-04-03T00:03:23;12.25;;;4.70;;
54947;SDS011;41113;41.882;12.530;2023-04-03T00:05:49;14.55;;;4.88;;
54947;SDS011;41113;41.882;12.530;2023-04-03T00:08:15;11.40;;;4.18;;
54947;SDS011;41113;41.882;12.530;2023-04-03T00:10:40;14.93;;;4.50;;
54947;SDS011;41113;41.882;12.530;2023-04-03T00:13:07;10.35;;;4.20;;
54947;SDS011;41113;41.882;12.530;2023-04-03T00:15:33;13.30;;;5.40;;
54947;SDS011;41113;41.882;12.530;2023-04-03T00:18:00;14.27;;;4.50;;
54947;SDS011;41113;41.882;12.530;2023-04-03T00:20:25;14.30;;;4.45;;
54947;SDS011;41113;41.882;12.530;2023-04-03T00:22:52;13.20;;;3.95;;
54947;SDS011;41113;41.882;12.530;2023-04-03T00:25:18;16.92;;;4.32;;
54947;SDS011;41113;41.882;12.530;2023-04-03T00:27:43;12.63;;;3.53;;
54947;SDS011;41113;41.882;12.530;2023-04-03T00:30:09;14.57;;;3.88;;
54947;SDS011;41113;41.882;12.530;2023-04-03T00:32:37;14.73;;;3.95;;
54947;SDS011;41113;41.882;12.530;2023-04-03T00:35:03;12.43;;;4.28;;
54947;SDS011;41113;41.882;12.530;2023-04-03T00:37:28;12.43;;;3.45;;
54947;SDS011;41113;41.882;12.530;2023-04-03T00:39:54;13.05;;;3.38;;
54947;SDS011;41113;41.882;12.530;2023-04-03T00:42:20;12.07;;;3.58;;
54947;SDS011;41113;41.882;12.530;2023-04-03T00:47:12;13.43;;;3.10;;
54947;SDS011;41113;41.882;12.530;2023-04-03T00:52:08;9.25;;;3.13;;
54947;SDS011;41113;41.882;12.530;2023-04-03T00:54:40;8.73;;;3.20;;
54947;SDS011;41113;41.882;12.530;2023-04-03T00:57:07;9.25;;;2.80;;
54947;SDS011;41113;41.882;12.530;2023-04-03T00:59:34;11.73;;;3.35;;
54947;SDS011;41113;41.882;12.530;2023-04-03T01:02:03;9.90;;;2.58;;
54947;SDS011;41113;41.882;12.530;2023-04-03T01:04:30;10.00;;;2.72;;
54947;SDS011;41113;41.882;12.530;2023-04-03T01:07:02;8.70;;;2.40;;
54947;SDS011;41113;41.882;12.530;2023-04-03T01:09:31;9.30;;;2.65;;
54947;SDS011;41113;41.882;12.530;2023-04-03T01:12:14;11.20;;;2.35;;
54947;SDS011;41113;41.882;12.530;2023-04-03T01:14:47;10.65;;;2.95;;
54947;SDS011;41113;41.882;12.530;2023-04-03T01:20:02;12.15;;;3.15;;
54947;SDS011;41113;41.882;12.530;2023-04-03T01:22:40;8.85;;;2.67;;
54947;SDS011;41113;41.882;12.530;2023-04-03T01:25:23;10.68;;;2.72;;
54947;SDS011;41113;41.882;12.530;2023-04-03T01:27:49;9.25;;;2.53;;
54947;SDS011;41113;41.882;12.530;2023-04-03T01:30:16;10.70;;;2.67;;
54947;SDS011;41113;41.882;12.530;2023-04-03T01:32:44;10.20;;;2.05;;
54947;SDS011;41113;41.882;12.530;2023-04-03T01:35:09;6.35;;;2.22;;
54947;SDS011;41113;41.882;12.530;2023-04-03T01:37:35;7.43;;;1.75;;
54947;SDS011;41113;41.882;12.530;2023-04-03T01:40:00;7.72;;;2.15;;
54947;SDS011;41113;41.882;12.530;2023-04-03T01:42:26;7.45;;;2.30;;
54947;SDS011;41113;41.882;12.530;2023-04-03T01:44:51;8.82;;;2.25;;
54947;SDS011;41113;41.882;12.530;2023-04-03T01:47:16;9.32;;;2.22;;
54947;SDS011;41113;41.882;12.530;2023-04-03T01:49:42;8.60;;;2.40;;
54947;SDS011;41113;41.882;12.530;2023-04-03T01:52:07;8.20;;;2.20;;
54947;SDS011;41113;41.882;12.530;2023-04-03T01:54:32;7.43;;;2.13;;
54947;SDS011;41113;41.882;12.530;2023-04-03T01:56:58;7.20;;;2.40;;
54947;SDS011;41113;41.882;12.530;2023-04-03T01:59:23;8.00;;;2.00;;
54947;SDS011;41113;41.882;12.530;2023-04-03T02:01:49;7.90;;;2.20;;
54947;SDS011;41113;41.882;12.530;2023-04-03T02:04:14;7.05;;;2.20;;
54947;SDS011;41113;41.882;12.530;2023-04-03T02:06:39;6.55;;;2.05;;
54947;SDS011;41113;41.882;12.530;2023-04-03T02:09:05;6.78;;;2.22;;
54947;SDS011;41113;41.882;12.530;2023-04-03T02:11:31;7.82;;;2.25;;
54947;SDS011;41113;41.882;12.530;2023-04-03T02:13:56;8.13;;;1.90;;
54947;SDS011;41113;41.882;12.530;2023-04-03T02:16:21;6.07;;;1.92;;
54947;SDS011;41113;41.882;12.530;2023-04-03T02:18:47;8.20;;;2.30;;
54947;SDS011;41113;41.882;12.530;2023-04-03T02:21:12;8.50;;;2.30;;
54947;SDS011;41113;41.882;12.530;2023-04-03T02:23:37;7.22;;;1.98;;
54947;SDS011;41113;41.882;12.530;2023-04-03T02:26:04;6.78;;;1.98;;
54947;SDS011;41113;41.882;12.530;2023-04-03T02:28:31;7.32;;;2.03;;
54947;SDS011;41113;41.882;12.530;2023-04-03T02:30:56;7.43;;;2.30;;
54947;SDS011;41113;41.882;12.530;2023-04-03T02:33:21;8.45;;;2.08;;
54947;SDS011;41113;41.882;12.530;2023-04-03T02:35:47;7.47;;;1.90;;
54947;SDS011;41113;41.882;12.530;2023-04-03T02:38:18;6.50;;;2.03;;
54947;SDS011;41113;41.882;12.530;2023-04-03T02:40:43;7.70;;;1.88;;
54947;SDS011;41113;41.882;12.530;2023-04-03T02:43:09;6.80;;;2.13;;
54947;SDS011;41113;41.882;12.530;2023-04-03T02:45:35;5.95;;;1.90;;
54947;SDS011;41113;41.882;12.530;2023-04-03T02:48:00;7.13;;;2.17;;
54947;SDS011;41113;41.882;12.530;2023-04-03T02:50:25;7.95;;;2.40;;
54947;SDS011;41113;41.882;12.530;2023-04-03T02:52:51;7.40;;;2.08;;
54947;SDS011;41113;41.882;12.530;2023-04-03T02:55:16;5.82;;;1.80;;
54947;SDS011;41113;41.882;12.530;2023-04-03T02:57:41;6.40;;;2.05;;
54947;SDS011;41113;41.882;12.530;2023-04-03T03:00:07;5.60;;;1.58;;
54947;SDS011;41113;41.882;12.530;2023-04-03T03:02:33;6.53;;;1.75;;
54947;SDS011;41113;41.882;12.530;2023-04-03T03:04:59;6.15;;;1.90;;
54947;SDS011;41113;41.882;12.530;2023-04-03T03:07:24;4.65;;;1.58;;
54947;SDS011;41113;41.882;12.530;2023-04-03T03:09:51;6.85;;;1.85;;
54947;SDS011;41113;41.882;12.530;2023-04-03T03:12:16;6.72;;;2.10;;
54947;SDS011;41113;41.882;12.530;2023-04-03T03:14:46;7.18;;;2.00;;
54947;SDS011;41113;41.882;12.530;2023-04-03T03:17:11;7.28;;;1.95;;
54947;SDS011;41113;41.882;12.530;2023-04-03T03:19:37;12.68;;;2.88;;
54947;SDS011;41113;41.882;12.530;2023-04-03T03:22:02;8.48;;;1.95;;
54947;SDS011;41113;41.882;12.530;2023-04-03T03:24:28;7.05;;;2.15;;
54947;SDS011;41113;41.882;12.530;2023-04-03T03:26:53;6.03;;;1.80;;
54947;SDS011;41113;41.882;12.530;2023-04-03T03:29:18;7.05;;;1.90;;
54947;SDS011;41113;41.882;12.530;2023-04-03T03:31:44;7.45;;;1.83;;
54947;SDS011;41113;41.882;12.530;2023-04-03T03:34:09;11.73;;;2.47;;
54947;SDS011;41113;41.882;12.530;2023-04-03T03:36:35;8.90;;;2.15;;
54947;SDS011;41113;41.882;12.530;2023-04-03T03:39:01;5.75;;;1.80;;
54947;SDS011;41113;41.882;12.530;2023-04-03T03:41:26;7.03;;;1.80;;
54947;SDS011;41113;41.882;12.530;2023-04-03T03:43:52;7.03;;;1.90;;
54947;SDS011;41113;41.882;12.530;2023-04-03T03:46:17;7.60;;;1.80;;
54947;SDS011;41113;41.882;12.530;2023-04-03T03:48:42;7.22;;;2.00;;
54947;SDS011;41113;41.882;12.530;2023-04-03T03:51:08;5.70;;;1.70;;
54947;SDS011;41113;41.882;12.530;2023-04-03T03:53:33;6.43;;;1.70;;
54947;SDS011;41113;41.882;12.530;2023-04-03T03:55:58;4.65;;;1.58;;
54947;SDS011;41113;41.882;12.530;2023-04-03T03:58:24;5.78;;;1.80;;
54947;SDS011;41113;41.882;12.530;2023-04-03T04:00:50;7.38;;;2.08;;
54947;SDS011;41113;41.882;12.530;2023-04-03T04:03:15;6.60;;;1.80;;
54947;SDS011;41113;41.882;12.530;2023-04-03T04:05:41;6.68;;;1.88;;
54947;SDS011;41113;41.882;12.530;2023-04-03T04:08:06;7.85;;;1.88;;
54947;SDS011;41113;41.882;12.530;2023-04-03T04:10:32;6.45;;;1.92;;
54947;SDS011;41113;41.882;12.530;2023-04-03T04:12:58;5.38;;;1.55;;
54947;SDS011;41113;41.882;12.530;2023-04-03T04:15:24;8.02;;;1.90;;
54947;SDS011;41113;41.882;12.530;2023-04-03T04:17:50;6.47;;;1.80;;
54947;SDS011;41113;41.882;12.530;2023-04-03T04:20:16;4.22;;;1.70;;
54947;SDS011;41113;41.882;12.530;2023-04-03T04:22:41;6.35;;;2.00;;
54947;SDS011;41113;41.882;12.530;2023-04-03T04:25:07;4.82;;;1.60;;
54947;SDS011;41113;41.882;12.530;2023-04-03T04:27:32;6.72;;;2.10;;
54947;SDS011;41113;41.882;12.530;2023-04-03T04:29:58;7.18;;;2.00;;
54947;SDS011;41113;41.882;12.530;2023-04-03T04:32:23;6.47;;;1.83;;
54947;SDS011;41113;41.882;12.530;2023-04-03T04:34:49;5.40;;;1.65;;
54947;SDS011;41113;41.882;12.530;2023-04-03T04:37:14;6.65;;;2.15;;
54947;SDS011;41113;41.882;12.530;2023-04-03T04:39:40;5.60;;;1.50;;
54947;SDS011;41113;41.882;12.530;2023-04-03T04:42:06;5.35;;;1.80;;
54947;SDS011;41113;41.882;12.530;2023-04-03T04:44:32;6.18;;;2.00;;
54947;SDS011;41113;41.882;12.530;2023-04-03T04:46:57;6.38;;;2.00;;
54947;SDS011;41113;41.882;12.530;2023-04-03T04:49:23;10.82;;;2.00;;
54947;SDS011;41113;41.882;12.530;2023-04-03T04:51:48;5.30;;;1.80;;
54947;SDS011;41113;41.882;12.530;2023-04-03T04:54:13;7.13;;;1.83;;
54947;SDS011;41113;41.882;12.530;2023-04-03T04:56:39;6.15;;;1.73;;
54947;SDS011;41113;41.882;12.530;2023-04-03T04:59:04;6.55;;;1.80;;
54947;SDS011;41113;41.882;12.530;2023-04-03T05:01:29;6.85;;;1.88;;
54947;SDS011;41113;41.882;12.530;2023-04-03T05:03:55;4.05;;;1.63;;
54947;SDS011;41113;41.882;12.530;2023-04-03T05:06:20;6.80;;;1.80;;
54947;SDS011;41113;41.882;12.530;2023-04-03T05:08:45;5.78;;;2.08;;
54947;SDS011;41113;41.882;12.530;2023-04-03T05:11:11;6.78;;;1.85;;
54947;SDS011;41113;41.882;12.530;2023-04-03T05:13:36;9.82;;;2.00;;
54947;SDS011;41113;41.882;12.530;2023-04-03T05:16:03;6.43;;;1.90;;
54947;SDS011;41113;41.882;12.530;2023-04-03T05:18:29;6.47;;;1.88;;
54947;SDS011;41113;41.882;12.530;2023-04-03T05:20:54;4.80;;;1.75;;
54947;SDS011;41113;41.882;12.530;2023-04-03T05:23:20;6.63;;;1.63;;
54947;SDS011;41113;41.882;12.530;2023-04-03T05:25:45;4.00;;;1.63;;
54947;SDS011;41113;41.882;12.530;2023-04-03T05:28:11;4.38;;;1.50;;
54947;SDS011;41113;41.882;12.530;2023-04-03T05:30:37;6.03;;;1.58;;
54947;SDS011;41113;41.882;12.530;2023-04-03T05:33:02;5.78;;;2.00;;
54947;SDS011;41113;41.882;12.530;2023-04-03T05:35:28;6.20;;;1.90;;
54947;SDS011;41113;41.882;12.530;2023-04-03T05:37:54;7.53;;;2.08;;
54947;SDS011;41113;41.882;12.530;2023-04-03T05:40:19;7.05;;;1.95;;
54947;SDS011;41113;41.882;12.530;2023-04-03T05:42:45;6.47;;;1.90;;
54947;SDS011;41113;41.882;12.530;2023-04-03T05:45:10;6.72;;;2.00;;
54947;SDS011;41113;41.882;12.530;2023-04-03T05:47:36;5.50;;;1.67;;
54947;SDS011;41113;41.882;12.530;2023-04-03T05:50:02;8.02;;;1.92;;
54947;SDS011;41113;41.882;12.530;2023-04-03T05:52:29;5.43;;;1.73;;
54947;SDS011;41113;41.882;12.530;2023-04-03T05:54:57;8.80;;;2.03;;
54947;SDS011;41113;41.882;12.530;2023-04-03T05:57:25;6.13;;;1.70;;
54947;SDS011;41113;41.882;12.530;2023-04-03T05:59:50;7.65;;;2.00;;
54947;SDS011;41113;41.882;12.530;2023-04-03T06:02:17;7.65;;;2.13;;
54947;SDS011;41113;41.882;12.530;2023-04-03T06:04:44;8.02;;;2.53;;
54947;SDS011;41113;41.882;12.530;2023-04-03T06:07:30;8.95;;;2.10;;
54947;SDS011;41113;41.882;12.530;2023-04-03T06:09:55;5.57;;;2.10;;
54947;SDS011;41113;41.882;12.530;2023-04-03T06:12:21;5.68;;;1.80;;
54947;SDS011;41113;41.882;12.530;2023-04-03T06:14:48;7.10;;;2.08;;
54947;SDS011;41113;41.882;12.530;2023-04-03T06:17:16;6.75;;;1.80;;
54947;SDS011;41113;41.882;12.530;2023-04-03T06:19:42;5.78;;;1.63;;
54947;SDS011;41113;41.882;12.530;2023-04-03T06:22:08;6.55;;;1.95;;
54947;SDS011;41113;41.882;12.530;2023-04-03T06:24:34;7.70;;;2.20;;
54947;SDS011;41113;41.882;12.530;2023-04-03T06:27:00;6.53;;;2.17;;
54947;SDS011;41113;41.882;12.530;2023-04-03T06:29:27;10.68;;;2.38;;
54947;SDS011;41113;41.882;12.530;2023-04-03T06:31:53;9.18;;;2.00;;
54947;SDS011;41113;41.882;12.530;2023-04-03T06:34:18;8.38;;;2.47;;
54947;SDS011;41113;41.882;12.530;2023-04-03T06:36:44;6.22;;;1.92;;
54947;SDS011;41113;41.882;12.530;2023-04-03T06:39:14;6.47;;;2.05;;
54947;SDS011;41113;41.882;12.530;2023-04-03T06:41:40;9.50;;;2.17;;
54947;SDS011;41113;41.882;12.530;2023-04-03T06:44:06;7.93;;;2.08;;
54947;SDS011;41113;41.882;12.530;2023-04-03T06:46:36;8.45;;;2.60;;
54947;SDS011;41113;41.882;12.530;2023-04-03T06:49:02;8.05;;;2.25;;
54947;SDS011;41113;41.882;12.530;2023-04-03T06:51:29;12.57;;;2.70;;
54947;SDS011;41113;41.882;12.530;2023-04-03T06:53:56;9.25;;;2.90;;
54947;SDS011;41113;41.882;12.530;2023-04-03T06:56:23;8.77;;;2.67;;
54947;SDS011;41113;41.882;12.530;2023-04-03T06:58:48;9.57;;;2.45;;
54947;SDS011;41113;41.882;12.530;2023-04-03T07:01:16;9.45;;;2.83;;
54947;SDS011;41113;41.882;12.530;2023-04-03T07:03:44;8.73;;;2.40;;
54947;SDS011;41113;41.882;12.530;2023-04-03T07:06:11;8.65;;;2.75;;
54947;SDS011;41113;41.882;12.530;2023-04-03T07:08:38;8.02;;;2.30;;
54947;SDS011;41113;41.882;12.530;2023-04-03T07:11:04;9.25;;;2.22;;
54947;SDS011;41113;41.882;12.530;2023-04-03T07:13:30;6.05;;;1.50;;
54947;SDS011;41113;41.882;12.530;2023-04-03T07:15:56;7.45;;;2.20;;
54947;SDS011;41113;41.882;12.530;2023-04-03T07:18:21;7.60;;;1.92;;
54947;SDS011;41113;41.882;12.530;2023-04-03T07:20:48;7.70;;;2.08;;
54947;SDS011;41113;41.882;12.530;2023-04-03T07:23:13;7.28;;;1.95;;
54947;SDS011;41113;41.882;12.530;2023-04-03T07:25:45;5.78;;;1.60;;
54947;SDS011;41113;41.882;12.530;2023-04-03T07:28:12;6.75;;;1.80;;
54947;SDS011;41113;41.882;12.530;2023-04-03T07:30:45;5.78;;;1.80;;
54947;SDS011;41113;41.882;12.530;2023-04-03T07:33:12;5.85;;;1.60;;
54947;SDS011;41113;41.882;12.530;2023-04-03T07:35:39;6.07;;;1.85;;
54947;SDS011;41113;41.882;12.530;2023-04-03T07:38:05;5.78;;;1.73;;
54947;SDS011;41113;41.882;12.530;2023-04-03T07:40:31;7.20;;;2.13;;
54947;SDS011;41113;41.882;12.530;2023-04-03T07:42:56;6.90;;;1.90;;
54947;SDS011;41113;41.882;12.530;2023-04-03T07:45:24;6.78;;;2.05;;
54947;SDS011;41113;41.882;12.530;2023-04-03T07:47:49;8.38;;;2.03;;
54947;SDS011;41113;41.882;12.530;2023-04-03T07:50:15;7.22;;;1.92;;
54947;SDS011;41113;41.882;12.530;2023-04-03T07:52:41;7.85;;;2.15;;
54947;SDS011;41113;41.882;12.530;2023-04-03T07:55:06;5.63;;;1.70;;
54947;SDS011;41113;41.882;12.530;2023-04-03T07:57:32;8.23;;;2.60;;
54947;SDS011;41113;41.882;12.530;2023-04-03T07:59:57;11.45;;;1.83;;
54947;SDS011;41113;41.882;12.530;2023-04-03T08:02:23;9.68;;;2.40;;
54947;SDS011;41113;41.882;12.530;2023-04-03T08:04:51;5.28;;;1.77;;
54947;SDS011;41113;41.882;12.530;2023-04-03T08:07:16;5.43;;;1.77;;
54947;SDS011;41113;41.882;12.530;2023-04-03T08:09:42;8.00;;;2.10;;
54947;SDS011;41113;41.882;12.530;2023-04-03T08:12:07;6.97;;;1.63;;
54947;SDS011;41113;41.882;12.530;2023-04-03T08:14:32;8.75;;;1.60;;
54947;SDS011;41113;41.882;12.530;2023-04-03T08:17:00;4.30;;;1.83;;
54947;SDS011;41113;41.882;12.530;2023-04-03T08:19:29;6.63;;;2.00;;
54947;SDS011;41113;41.882;12.530;2023-04-03T08:21:54;6.43;;;1.70;;
54947;SDS011;41113;41.882;12.530;2023-04-03T08:24:20;4.15;;;1.42;;
54947;SDS011;41113;41.882;12.530;2023-04-03T08:26:45;7.50;;;1.83;;
54947;SDS011;41113;41.882;12.530;2023-04-03T08:29:11;6.50;;;1.80;;
54947;SDS011;41113;41.882;12.530;2023-04-03T08:31:38;7.78;;;2.33;;
54947;SDS011;41113;41.882;12.530;2023-04-03T08:34:03;7.82;;;1.90;;
54947;SDS011;41113;41.882;12.530;2023-04-03T08:36:30;5.28;;;1.70;;
54947;SDS011;41113;41.882;12.530;2023-04-03T08:38:56;5.38;;;1.70;;
54947;SDS011;41113;41.882;12.530;2023-04-03T08:41:41;5.15;;;1.67;;
54947;SDS011;41113;41.882;12.530;2023-04-03T08:49:28;6.72;;;1.50;;
54947;SDS011;41113;41.882;12.530;2023-04-03T08:51:57;5.55;;;1.65;;
54947;SDS011;41113;41.882;12.530;2023-04-03T08:54:37;7.13;;;1.70;;
54947;SDS011;41113;41.882;12.530;2023-04-03T08:57:14;6.75;;;1.75;;
54947;SDS011;41113;41.882;12.530;2023-04-03T08:59:39;4.28;;;1.40;;
54947;SDS011;41113;41.882;12.530;2023-04-03T09:02:18;5.07;;;1.48;;
54947;SDS011;41113;41.882;12.530;2023-04-03T09:04:53;6.13;;;1.50;;
54947;SDS011;41113;41.882;12.530;2023-04-03T09:07:22;3.95;;;1.33;;
54947;SDS011;41113;41.882;12.530;2023-04-03T09:09:56;6.15;;;1.70;;
54947;SDS011;41113;41.882;12.530;2023-04-03T09:12:29;3.88;;;1.40;;
54947;SDS011;41113;41.882;12.530;2023-04-03T09:15:02;7.20;;;1.67;;
54947;SDS011;41113;41.882;12.530;2023-04-03T09:22:52;5.53;;;1.35;;
54947;SDS011;41113;41.882;12.530;2023-04-03T09:25:31;4.07;;;1.30;;
54947;SDS011;41113;41.882;12.530;2023-04-03T09:28:00;5.22;;;1.55;;
54947;SDS011;41113;41.882;12.530;2023-04-03T09:30:27;3.20;;;1.20;;
54947;SDS011;41113;41.882;12.530;2023-04-03T09:32:53;3.75;;;1.27;;
54947;SDS011;41113;41.882;12.530;2023-04-03T09:35:23;3.67;;;1.35;;
54947;SDS011;41113;41.882;12.530;2023-04-03T09:38:00;2.70;;;0.95;;
54947;SDS011;41113;41.882;12.530;2023-04-03T09:40:48;2.85;;;0.90;;
54947;SDS011;41113;41.882;12.530;2023-04-03T09:43:20;8.15;;;1.05;;
54947;SDS011;41113;41.882;12.530;2023-04-03T09:45:50;7.40;;;1.20;;
54947;SDS011;41113;41.882;12.530;2023-04-03T09:48:18;9.48;;;1.67;;
54947;SDS011;41113;41.882;12.530;2023-04-03T09:55:55;6.13;;;1.48;;
54947;SDS011;41113;41.882;12.530;2023-04-03T09:58:23;5.50;;;1.30;;
54947;SDS011;41113;41.882;12.530;2023-04-03T10:00:57;5.68;;;1.52;;
54947;SDS011;41113;41.882;12.530;2023-04-03T10:03:27;5.35;;;1.40;;
54947;SDS011;41113;41.882;12.530;2023-04-03T10:05:57;3.15;;;1.10;;
54947;SDS011;41113;41.882;12.530;2023-04-03T10:08:28;4.78;;;1.08;;
54947;SDS011;41113;41.882;12.530;2023-04-03T10:11:32;3.28;;;1.17;;
54947;SDS011;41113;41.882;12.530;2023-04-03T10:13:51;6.32;;;1.20;;
54947;SDS011;41113;41.882;12.530;2023-04-03T10:16:18;2.17;;;0.90;;
54947;SDS011;41113;41.882;12.530;2023-04-03T10:21:40;4.38;;;1.30;;
54947;SDS011;41113;41.882;12.530;2023-04-03T10:24:28;2.88;;;1.10;;
54947;SDS011;41113;41.882;12.530;2023-04-03T10:27:20;4.10;;;1.20;;
54947;SDS011;41113;41.882;12.530;2023-04-03T10:33:01;2.90;;;1.05;;
54947;SDS011;41113;41.882;12.530;2023-04-03T10:41:38;2.40;;;0.93;;
54947;SDS011;41113;41.882;12.530;2023-04-03T10:43:54;4.28;;;1.08;;
54947;SDS011;41113;41.882;12.530;2023-04-03T10:46:49;4.97;;;1.20;;
54947;SDS011;41113;41.882;12.530;2023-04-03T10:54:41;3.22;;;0.90;;
54947;SDS011;41113;41.882;12.530;2023-04-03T10:57:40;3.33;;;1.08;;
54947;SDS011;41113;41.882;12.530;2023-04-03T11:00:06;2.05;;;0.93;;
54947;SDS011;41113;41.882;12.530;2023-04-03T11:02:49;4.13;;;0.80;;
54947;SDS011;41113;41.882;12.530;2023-04-03T11:08:17;3.45;;;1.02;;
54947;SDS011;41113;41.882;12.530;2023-04-03T11:10:53;3.30;;;1.00;;
54947;SDS011;41113;41.882;12.530;2023-04-03T11:13:24;2.25;;;0.85;;
54947;SDS011;41113;41.882;12.530;2023-04-03T11:15:56;3.75;;;1.00;;
54947;SDS011;41113;41.882;12.530;2023-04-03T11:21:19;4.43;;;1.08;;
54947;SDS011;41113;41.882;12.530;2023-04-03T11:23:49;3.47;;;1.00;;
54947;SDS011;41113;41.882;12.530;2023-04-03T11:26:19;3.13;;;1.00;;
54947;SDS011;41113;41.882;12.530;2023-04-03T11:28:52;7.03;;;1.00;;
54947;SDS011;41113;41.882;12.530;2023-04-03T11:31:27;2.55;;;0.90;;
54947;SDS011;41113;41.882;12.530;2023-04-03T11:36:24;4.43;;;0.93;;
54947;SDS011;41113;41.882;12.530;2023-04-03T11:38:55;3.22;;;1.13;;
54947;SDS011;41113;41.882;12.530;2023-04-03T11:41:30;3.95;;;1.20;;
54947;SDS011;41113;41.882;12.530;2023-04-03T11:43:58;3.33;;;1.15;;
54947;SDS011;41113;41.882;12.530;2023-04-03T11:46:49;4.35;;;1.00;;
54947;SDS011;41113;41.882;12.530;2023-04-03T11:57:49;1.52;;;1.00;;
54947;SDS011;41113;41.882;12.530;2023-04-03T12:13:42;4.03;;;1.17;;
54947;SDS011;41113;41.882;12.530;2023-04-03T12:32:17;5.32;;;1.10;;
54947;SDS011;41113;41.882;12.530;2023-04-03T12:34:53;3.70;;;0.98;;
54947;SDS011;41113;41.882;12.530;2023-04-03T12:37:38;3.60;;;1.05;;
54947;SDS011;41113;41.882;12.530;2023-04-03T12:40:38;6.82;;;1.10;;
54947;SDS011;41113;41.882;12.530;2023-04-03T12:45:53;4.00;;;1.13;;
54947;SDS011;41113;41.882;12.530;2023-04-03T12:48:27;2.75;;;0.90;;
54947;SDS011;41113;41.882;12.530;2023-04-03T12:51:19;2.67;;;0.90;;
54947;SDS011;41113;41.882;12.530;2023-04-03T12:54:16;3.75;;;1.10;;
54947;SDS011;41113;41.882;12.530;2023-04-03T12:56:47;2.80;;;1.13;;
54947;SDS011;41113;41.882;12.530;2023-04-03T12:59:20;5.38;;;1.35;;
54947;SDS011;41113;41.882;12.530;2023-04-03T13:01:58;3.07;;;1.10;;
54947;SDS011;41113;41.882;12.530;2023-04-03T13:04:24;2.58;;;0.90;;
54947;SDS011;41113;41.882;12.530;2023-04-03T13:06:53;4.78;;;1.20;;
54947;SDS011;41113;41.882;12.530;2023-04-03T13:11:51;5.10;;;1.17;;
54947;SDS011;41113;41.882;12.530;2023-04-03T13:14:22;4.43;;;1.02;;
54947;SDS011;41113;41.882;12.530;2023-04-03T13:16:55;4.13;;;1.00;;
54947;SDS011;41113;41.882;12.530;2023-04-03T13:19:26;3.50;;;1.00;;
54947;SDS011;41113;41.882;12.530;2023-04-03T13:21:56;2.38;;;1.05;;
54947;SDS011;41113;41.882;12.530;2023-04-03T13:24:26;5.13;;;1.42;;
54947;SDS011;41113;41.882;12.530;2023-04-03T13:26:54;4.95;;;1.10;;
54947;SDS011;41113;41.882;12.530;2023-04-03T13:29:25;4.82;;;1.30;;
54947;SDS011;41113;41.882;12.530;2023-04-03T13:31:54;3.97;;;1.20;;
54947;SDS011;41113;41.882;12.530;2023-04-03T13:34:21;4.78;;;1.20;;
54947;SDS011;41113;41.882;12.530;2023-04-03T13:41:47;3.78;;;1.20;;
54947;SDS011;41113;41.882;12.530;2023-04-03T13:44:25;4.75;;;1.05;;
54947;SDS011;41113;41.882;12.530;2023-04-03T13:47:13;5.63;;;1.35;;
54947;SDS011;41113;41.882;12.530;2023-04-03T13:49:43;3.28;;;1.63;;
54947;SDS011;41113;41.882;12.530;2023-04-03T13:54:46;3.78;;;1.48;;
54947;SDS011;41113;41.882;12.530;2023-04-03T13:59:41;6.70;;;1.50;;
54947;SDS011;41113;41.882;12.530;2023-04-03T14:07:15;4.05;;;1.10;;
54947;SDS011;41113;41.882;12.530;2023-04-03T14:09:41;4.22;;;1.30;;
54947;SDS011;41113;41.882;12.530;2023-04-03T14:12:30;5.68;;;1.40;;
54947;SDS011;41113;41.882;12.530;2023-04-03T14:14:56;5.80;;;1.40;;
54947;SDS011;41113;41.882;12.530;2023-04-03T14:17:23;2.90;;;1.13;;
54947;SDS011;41113;41.882;12.530;2023-04-03T14:19:50;3.20;;;1.05;;
54947;SDS011;41113;41.882;12.530;2023-04-03T14:24:47;5.65;;;1.30;;
54947;SDS011;41113;41.882;12.530;2023-04-03T14:30:23;4.35;;;1.30;;
54947;SDS011;41113;41.882;12.530;2023-04-03T14:32:52;4.25;;;1.10;;
54947;SDS011;41113;41.882;12.530;2023-04-03T14:35:18;7.85;;;1.40;;
54947;SDS011;41113;41.882;12.530;2023-04-03T14:37:44;4.60;;;1.30;;
54947;SDS011;41113;41.882;12.530;2023-04-03T14:40:16;5.90;;;1.50;;
54947;SDS011;41113;41.882;12.530;2023-04-03T14:42:46;5.35;;;1.50;;
54947;SDS011;41113;41.882;12.530;2023-04-03T14:45:13;4.97;;;1.30;;
54947;SDS011;41113;41.882;12.530;2023-04-03T14:47:42;7.10;;;1.25;;
54947;SDS011;41113;41.882;12.530;2023-04-03T14:50:20;6.03;;;1.50;;
54947;SDS011;41113;41.882;12.530;2023-04-03T14:52:48;5.22;;;1.30;;
54947;SDS011;41113;41.882;12.530;2023-04-03T14:55:15;4.43;;;1.30;;
54947;SDS011;41113;41.882;12.530;2023-04-03T14:57:42;5.68;;;1.65;;
54947;SDS011;41113;41.882;12.530;2023-04-03T15:00:12;8.55;;;3.17;;
54947;SDS011;41113;41.882;12.530;2023-04-03T15:02:38;6.60;;;1.98;;
54947;SDS011;41113;41.882;12.530;2023-04-03T15:05:05;6.55;;;1.60;;
54947;SDS011;41113;41.882;12.530;2023-04-03T15:07:33;5.65;;;1.42;;
54947;SDS011;41113;41.882;12.530;2023-04-03T15:10:23;5.57;;;1.70;;
54947;SDS011;41113;41.882;12.530;2023-04-03T15:12:51;6.53;;;2.05;;
54947;SDS011;41113;41.882;12.530;2023-04-03T15:15:18;5.50;;;1.45;;
54947;SDS011;41113;41.882;12.530;2023-04-03T15:17:45;8.80;;;1.50;;
54947;SDS011;41113;41.882;12.530;2023-04-03T15:20:17;5.53;;;1.40;;
54947;SDS011;41113;41.882;12.530;2023-04-03T15:22:45;5.57;;;1.60;;
54947;SDS011;41113;41.882;12.530;2023-04-03T15:25:10;8.63;;;2.13;;
54947;SDS011;41113;41.882;12.530;2023-04-03T15:27:37;3.90;;;1.50;;
54947;SDS011;41113;41.882;12.530;2023-04-03T15:30:04;6.38;;;1.50;;
54947;SDS011;41113;41.882;12.530;2023-04-03T15:32:31;7.25;;;1.60;;
54947;SDS011;41113;41.882;12.530;2023-04-03T15:34:56;8.27;;;1.50;;
54947;SDS011;41113;41.882;12.530;2023-04-03T15:37:22;6.82;;;1.60;;
54947;SDS011;41113;41.882;12.530;2023-04-03T15:39:48;6.82;;;1.55;;
54947;SDS011;41113;41.882;12.530;2023-04-03T15:42:13;8.07;;;1.73;;
54947;SDS011;41113;41.882;12.530;2023-04-03T15:44:38;6.35;;;1.50;;
54947;SDS011;41113;41.882;12.530;2023-04-03T15:47:04;10.05;;;1.50;;
54947;SDS011;41113;41.882;12.530;2023-04-03T15:49:30;6.15;;;1.58;;
54947;SDS011;41113;41.882;12.530;2023-04-03T15:51:58;8.30;;;1.63;;
54947;SDS011;41113;41.882;12.530;2023-04-03T15:54:24;8.68;;;1.45;;
54947;SDS011;41113;41.882;12.530;2023-04-03T15:56:50;5.22;;;1.58;;
54947;SDS011;41113;41.882;12.530;2023-04-03T15:59:16;5.78;;;1.73;;
54947;SDS011;41113;41.882;12.530;2023-04-03T16:01:41;6.07;;;1.40;;
54947;SDS011;41113;41.882;12.530;2023-04-03T16:04:07;9.10;;;1.70;;
54947;SDS011;41113;41.882;12.530;2023-04-03T16:06:34;6.95;;;1.67;;
54947;SDS011;41113;41.882;12.530;2023-04-03T16:09:00;8.30;;;1.88;;
54947;SDS011;41113;41.882;12.530;2023-04-03T16:11:25;6.28;;;1.80;;
54947;SDS011;41113;41.882;12.530;2023-04-03T16:13:51;8.38;;;2.00;;
54947;SDS011;41113;41.882;12.530;2023-04-03T16:16:17;9.98;;;1.85;;
54947;SDS011;41113;41.882;12.530;2023-04-03T16:18:43;10.30;;;2.05;;
54947;SDS011;41113;41.882;12.530;2023-04-03T16:21:11;10.70;;;2.20;;
54947;SDS011;41113;41.882;12.530;2023-04-03T16:23:38;8.52;;;1.70;;
54947;SDS011;41113;41.882;12.530;2023-04-03T16:26:04;8.63;;;1.92;;
54947;SDS011;41113;41.882;12.530;2023-04-03T16:28:29;6.07;;;1.80;;
54947;SDS011;41113;41.882;12.530;2023-04-03T16:30:55;11.52;;;2.08;;
54947;SDS011;41113;41.882;12.530;2023-04-03T16:33:20;6.72;;;1.73;;